Teriberka, Russia
Current Conditions -  °F | °C
As of 9:30 PM on Tuesday 21 Oct 2014 (Local Time) from ULMM Reporting Station
Clear Clear  
Wind Chill:   Ceiling: Unl
Heat Index:   Visibility: 6mi
Dew Point: -2°   Wind: 2mph
Humidity: 85%   Direction: NA
Pressure: 30.33"   Gusts: NA
Location:  69.16°N, 35.18°E
Report Text: ULMM 211830Z VRB01MPS CAVOK M17/M19 Q1027 NOSIG RMK QFE76231390150
Loading
Personal Weather Stations






























Interactive Weather Map
Tropical Storm Tracking
New forecast layout! Learn more

10-Day Weather Forecast

Advertisements
Track Severe Weather on mobile